sensor_id;sensor_type;location;lat;lon;timestamp;P1;durP1;ratioP1;P2;durP2;ratioP2
9986;SDS011;5033;46.310;11.214;2022-08-01T00:00:22;1.15;;;0.85;;
9986;SDS011;5033;46.310;11.214;2022-08-01T00:02:50;0.75;;;0.75;;
9986;SDS011;5033;46.310;11.214;2022-08-01T00:05:17;0.90;;;0.90;;
9986;SDS011;5033;46.310;11.214;2022-08-01T00:07:44;0.70;;;0.70;;
9986;SDS011;5033;46.310;11.214;2022-08-01T00:10:12;0.75;;;0.75;;
9986;SDS011;5033;46.310;11.214;2022-08-01T00:12:41;0.77;;;0.77;;
9986;SDS011;5033;46.310;11.214;2022-08-01T00:15:10;0.70;;;0.70;;
9986;SDS011;5033;46.310;11.214;2022-08-01T00:17:38;0.93;;;0.93;;
9986;SDS011;5033;46.310;11.214;2022-08-01T00:20:08;0.80;;;0.80;;
9986;SDS011;5033;46.310;11.214;2022-08-01T00:22:38;0.80;;;0.80;;
9986;SDS011;5033;46.310;11.214;2022-08-01T00:25:05;0.70;;;0.70;;
9986;SDS011;5033;46.310;11.214;2022-08-01T00:27:33;1.45;;;0.80;;
9986;SDS011;5033;46.310;11.214;2022-08-01T00:30:00;1.05;;;0.95;;
9986;SDS011;5033;46.310;11.214;2022-08-01T00:32:29;0.90;;;0.90;;
9986;SDS011;5033;46.310;11.214;2022-08-01T00:34:56;0.90;;;0.90;;
9986;SDS011;5033;46.310;11.214;2022-08-01T00:37:25;1.10;;;1.00;;
9986;SDS011;5033;46.310;11.214;2022-08-01T00:39:52;0.80;;;0.80;;
9986;SDS011;5033;46.310;11.214;2022-08-01T00:42:19;1.73;;;0.90;;
9986;SDS011;5033;46.310;11.214;2022-08-01T00:44:46;0.80;;;0.80;;
9986;SDS011;5033;46.310;11.214;2022-08-01T00:47:14;0.70;;;0.70;;
9986;SDS011;5033;46.310;11.214;2022-08-01T00:49:41;0.80;;;0.80;;
9986;SDS011;5033;46.310;11.214;2022-08-01T00:52:08;0.80;;;0.80;;
9986;SDS011;5033;46.310;11.214;2022-08-01T00:54:38;1.25;;;1.15;;
9986;SDS011;5033;46.310;11.214;2022-08-01T00:57:06;1.33;;;1.05;;
9986;SDS011;5033;46.310;11.214;2022-08-01T00:59:33;1.00;;;0.90;;
9986;SDS011;5033;46.310;11.214;2022-08-01T01:02:01;1.00;;;0.98;;
9986;SDS011;5033;46.310;11.214;2022-08-01T01:04:28;0.80;;;0.80;;
9986;SDS011;5033;46.310;11.214;2022-08-01T01:06:57;2.33;;;0.77;;
9986;SDS011;5033;46.310;11.214;2022-08-01T01:09:33;0.88;;;0.88;;
9986;SDS011;5033;46.310;11.214;2022-08-01T01:12:11;0.77;;;0.77;;
9986;SDS011;5033;46.310;11.214;2022-08-01T01:14:44;1.35;;;0.90;;
9986;SDS011;5033;46.310;11.214;2022-08-01T01:17:16;1.20;;;0.98;;
9986;SDS011;5033;46.310;11.214;2022-08-01T01:19:48;1.38;;;1.25;;
9986;SDS011;5033;46.310;11.214;2022-08-01T01:22:25;1.00;;;1.00;;
9986;SDS011;5033;46.310;11.214;2022-08-01T01:25:04;1.08;;;0.98;;
9986;SDS011;5033;46.310;11.214;2022-08-01T01:27:42;2.03;;;1.02;;
9986;SDS011;5033;46.310;11.214;2022-08-01T01:30:17;1.60;;;0.80;;
9986;SDS011;5033;46.310;11.214;2022-08-01T01:32:46;1.17;;;1.08;;
9986;SDS011;5033;46.310;11.214;2022-08-01T01:35:17;1.08;;;0.95;;
9986;SDS011;5033;46.310;11.214;2022-08-01T01:37:47;0.90;;;0.90;;
9986;SDS011;5033;46.310;11.214;2022-08-01T01:40:17;0.82;;;0.82;;
9986;SDS011;5033;46.310;11.214;2022-08-01T01:42:46;1.20;;;0.90;;
9986;SDS011;5033;46.310;11.214;2022-08-01T01:45:14;1.00;;;1.00;;
9986;SDS011;5033;46.310;11.214;2022-08-01T01:47:43;1.90;;;0.90;;
9986;SDS011;5033;46.310;11.214;2022-08-01T01:50:11;0.73;;;0.73;;
9986;SDS011;5033;46.310;11.214;2022-08-01T01:52:40;1.77;;;1.00;;
9986;SDS011;5033;46.310;11.214;2022-08-01T01:55:10;0.80;;;0.80;;
9986;SDS011;5033;46.310;11.214;2022-08-01T01:57:40;1.10;;;1.10;;
9986;SDS011;5033;46.310;11.214;2022-08-01T02:00:10;0.82;;;0.82;;
9986;SDS011;5033;46.310;11.214;2022-08-01T02:02:39;2.17;;;1.02;;
9986;SDS011;5033;46.310;11.214;2022-08-01T02:05:09;1.05;;;1.05;;
9986;SDS011;5033;46.310;11.214;2022-08-01T02:07:38;0.90;;;0.90;;
9986;SDS011;5033;46.310;11.214;2022-08-01T02:10:07;1.17;;;1.10;;
9986;SDS011;5033;46.310;11.214;2022-08-01T02:12:37;0.82;;;0.70;;
9986;SDS011;5033;46.310;11.214;2022-08-01T02:15:08;1.75;;;1.00;;
9986;SDS011;5033;46.310;11.214;2022-08-01T02:17:39;2.22;;;1.05;;
9986;SDS011;5033;46.310;11.214;2022-08-01T02:20:17;0.90;;;0.90;;
9986;SDS011;5033;46.310;11.214;2022-08-01T02:22:46;1.00;;;1.00;;
9986;SDS011;5033;46.310;11.214;2022-08-01T02:25:18;1.40;;;1.00;;
9986;SDS011;5033;46.310;11.214;2022-08-01T02:27:50;1.02;;;1.02;;
9986;SDS011;5033;46.310;11.214;2022-08-01T02:30:26;1.02;;;1.00;;
9986;SDS011;5033;46.310;11.214;2022-08-01T02:32:59;1.02;;;0.90;;
9986;SDS011;5033;46.310;11.214;2022-08-01T02:35:32;1.83;;;1.13;;
9986;SDS011;5033;46.310;11.214;2022-08-01T02:38:03;1.23;;;1.00;;
9986;SDS011;5033;46.310;11.214;2022-08-01T02:40:33;0.90;;;0.90;;
9986;SDS011;5033;46.310;11.214;2022-08-01T02:43:03;2.35;;;1.13;;
9986;SDS011;5033;46.310;11.214;2022-08-01T02:45:32;1.80;;;1.20;;
9986;SDS011;5033;46.310;11.214;2022-08-01T02:48:05;1.08;;;1.08;;
9986;SDS011;5033;46.310;11.214;2022-08-01T02:50:42;0.95;;;0.95;;
9986;SDS011;5033;46.310;11.214;2022-08-01T02:53:13;1.52;;;1.00;;
9986;SDS011;5033;46.310;11.214;2022-08-01T02:55:41;1.00;;;0.90;;
9986;SDS011;5033;46.310;11.214;2022-08-01T02:58:12;0.90;;;0.90;;
9986;SDS011;5033;46.310;11.214;2022-08-01T03:00:42;0.88;;;0.88;;
9986;SDS011;5033;46.310;11.214;2022-08-01T03:03:10;1.27;;;0.98;;
9986;SDS011;5033;46.310;11.214;2022-08-01T03:05:39;1.08;;;1.08;;
9986;SDS011;5033;46.310;11.214;2022-08-01T03:08:08;1.08;;;1.08;;
9986;SDS011;5033;46.310;11.214;2022-08-01T03:10:36;1.73;;;1.17;;
9986;SDS011;5033;46.310;11.214;2022-08-01T03:13:06;1.10;;;1.10;;
9986;SDS011;5033;46.310;11.214;2022-08-01T03:15:35;1.08;;;1.08;;
9986;SDS011;5033;46.310;11.214;2022-08-01T03:18:05;0.93;;;0.93;;
9986;SDS011;5033;46.310;11.214;2022-08-01T03:20:35;0.80;;;0.80;;
9986;SDS011;5033;46.310;11.214;2022-08-01T03:23:03;1.00;;;1.00;;
9986;SDS011;5033;46.310;11.214;2022-08-01T03:25:34;0.88;;;0.88;;
9986;SDS011;5033;46.310;11.214;2022-08-01T03:28:04;1.10;;;1.10;;
9986;SDS011;5033;46.310;11.214;2022-08-01T03:30:33;0.93;;;0.93;;
9986;SDS011;5033;46.310;11.214;2022-08-01T03:33:03;1.10;;;1.10;;
9986;SDS011;5033;46.310;11.214;2022-08-01T03:35:32;0.90;;;0.90;;
9986;SDS011;5033;46.310;11.214;2022-08-01T03:38:03;2.55;;;1.05;;
9986;SDS011;5033;46.310;11.214;2022-08-01T03:40:37;1.00;;;1.00;;
9986;SDS011;5033;46.310;11.214;2022-08-01T03:43:07;1.08;;;1.08;;
9986;SDS011;5033;46.310;11.214;2022-08-01T03:45:43;1.35;;;1.00;;
9986;SDS011;5033;46.310;11.214;2022-08-01T03:48:16;1.08;;;1.08;;
9986;SDS011;5033;46.310;11.214;2022-08-01T03:50:45;0.80;;;0.80;;
9986;SDS011;5033;46.310;11.214;2022-08-01T03:53:14;1.05;;;0.93;;
9986;SDS011;5033;46.310;11.214;2022-08-01T03:55:47;1.17;;;1.17;;
9986;SDS011;5033;46.310;11.214;2022-08-01T03:58:15;0.93;;;0.93;;
9986;SDS011;5033;46.310;11.214;2022-08-01T04:00:43;0.88;;;0.88;;
9986;SDS011;5033;46.310;11.214;2022-08-01T04:03:13;1.20;;;1.10;;
9986;SDS011;5033;46.310;11.214;2022-08-01T04:05:41;1.10;;;1.10;;
9986;SDS011;5033;46.310;11.214;2022-08-01T04:08:08;1.00;;;1.00;;
9986;SDS011;5033;46.310;11.214;2022-08-01T04:10:36;1.17;;;1.08;;
9986;SDS011;5033;46.310;11.214;2022-08-01T04:13:05;1.23;;;1.17;;
9986;SDS011;5033;46.310;11.214;2022-08-01T04:15:32;1.13;;;1.13;;
9986;SDS011;5033;46.310;11.214;2022-08-01T04:17:59;1.00;;;1.00;;
9986;SDS011;5033;46.310;11.214;2022-08-01T04:20:26;1.20;;;1.20;;
9986;SDS011;5033;46.310;11.214;2022-08-01T04:22:54;1.45;;;1.35;;
9986;SDS011;5033;46.310;11.214;2022-08-01T04:25:21;1.40;;;1.30;;
9986;SDS011;5033;46.310;11.214;2022-08-01T04:27:51;1.17;;;1.17;;
9986;SDS011;5033;46.310;11.214;2022-08-01T04:30:22;1.08;;;1.08;;
9986;SDS011;5033;46.310;11.214;2022-08-01T04:32:52;1.10;;;1.10;;
9986;SDS011;5033;46.310;11.214;2022-08-01T04:35:23;1.13;;;1.05;;
9986;SDS011;5033;46.310;11.214;2022-08-01T04:37:52;1.00;;;1.00;;
9986;SDS011;5033;46.310;11.214;2022-08-01T04:40:21;1.00;;;1.00;;
9986;SDS011;5033;46.310;11.214;2022-08-01T04:42:49;0.85;;;0.82;;
9986;SDS011;5033;46.310;11.214;2022-08-01T04:45:16;1.20;;;1.15;;
9986;SDS011;5033;46.310;11.214;2022-08-01T04:47:45;0.90;;;0.90;;
9986;SDS011;5033;46.310;11.214;2022-08-01T04:50:13;1.33;;;1.23;;
9986;SDS011;5033;46.310;11.214;2022-08-01T04:52:40;0.98;;;0.98;;
9986;SDS011;5033;46.310;11.214;2022-08-01T04:55:08;0.90;;;0.90;;
9986;SDS011;5033;46.310;11.214;2022-08-01T04:57:36;1.05;;;1.05;;
9986;SDS011;5033;46.310;11.214;2022-08-01T05:00:06;1.00;;;1.00;;
9986;SDS011;5033;46.310;11.214;2022-08-01T05:02:34;1.20;;;1.10;;
9986;SDS011;5033;46.310;11.214;2022-08-01T05:05:02;0.95;;;0.95;;
9986;SDS011;5033;46.310;11.214;2022-08-01T05:07:31;1.77;;;1.20;;
9986;SDS011;5033;46.310;11.214;2022-08-01T05:09:58;1.80;;;1.27;;
9986;SDS011;5033;46.310;11.214;2022-08-01T05:12:26;2.45;;;1.48;;
9986;SDS011;5033;46.310;11.214;2022-08-01T05:14:54;1.20;;;1.20;;
9986;SDS011;5033;46.310;11.214;2022-08-01T05:17:21;1.40;;;1.30;;
9986;SDS011;5033;46.310;11.214;2022-08-01T05:19:48;1.55;;;1.45;;
9986;SDS011;5033;46.310;11.214;2022-08-01T05:22:16;2.13;;;1.77;;
9986;SDS011;5033;46.310;11.214;2022-08-01T05:24:43;1.73;;;1.30;;
9986;SDS011;5033;46.310;11.214;2022-08-01T05:27:12;1.40;;;1.30;;
9986;SDS011;5033;46.310;11.214;2022-08-01T05:29:39;1.60;;;1.50;;
9986;SDS011;5033;46.310;11.214;2022-08-01T05:32:07;1.65;;;1.55;;
9986;SDS011;5033;46.310;11.214;2022-08-01T05:34:34;1.40;;;1.30;;
9986;SDS011;5033;46.310;11.214;2022-08-01T05:37:01;2.10;;;1.70;;
9986;SDS011;5033;46.310;11.214;2022-08-01T05:39:30;1.58;;;1.48;;
9986;SDS011;5033;46.310;11.214;2022-08-01T05:41:57;1.50;;;1.40;;
9986;SDS011;5033;46.310;11.214;2022-08-01T05:44:24;2.45;;;1.63;;
9986;SDS011;5033;46.310;11.214;2022-08-01T05:46:51;1.88;;;1.67;;
9986;SDS011;5033;46.310;11.214;2022-08-01T05:49:18;1.55;;;1.45;;
9986;SDS011;5033;46.310;11.214;2022-08-01T05:51:45;4.60;;;2.10;;
9986;SDS011;5033;46.310;11.214;2022-08-01T05:54:12;1.63;;;1.52;;
9986;SDS011;5033;46.310;11.214;2022-08-01T05:56:41;1.60;;;1.50;;
9986;SDS011;5033;46.310;11.214;2022-08-01T05:59:08;1.75;;;1.55;;
9986;SDS011;5033;46.310;11.214;2022-08-01T06:01:35;1.42;;;1.30;;
9986;SDS011;5033;46.310;11.214;2022-08-01T06:04:03;1.80;;;1.70;;
9986;SDS011;5033;46.310;11.214;2022-08-01T06:06:30;1.80;;;1.70;;
9986;SDS011;5033;46.310;11.214;2022-08-01T06:08:57;1.80;;;1.70;;
9986;SDS011;5033;46.310;11.214;2022-08-01T06:11:24;1.65;;;1.55;;
9986;SDS011;5033;46.310;11.214;2022-08-01T06:13:52;1.70;;;1.60;;
9986;SDS011;5033;46.310;11.214;2022-08-01T06:16:19;1.83;;;1.60;;
9986;SDS011;5033;46.310;11.214;2022-08-01T06:18:46;1.70;;;1.60;;
9986;SDS011;5033;46.310;11.214;2022-08-01T06:21:14;1.70;;;1.60;;
9986;SDS011;5033;46.310;11.214;2022-08-01T06:23:41;1.85;;;1.73;;
9986;SDS011;5033;46.310;11.214;2022-08-01T06:26:08;3.80;;;1.80;;
9986;SDS011;5033;46.310;11.214;2022-08-01T06:28:36;2.10;;;1.90;;
9986;SDS011;5033;46.310;11.214;2022-08-01T06:31:05;2.85;;;1.67;;
9986;SDS011;5033;46.310;11.214;2022-08-01T06:33:32;2.42;;;1.70;;
9986;SDS011;5033;46.310;11.214;2022-08-01T06:35:59;1.70;;;1.60;;
9986;SDS011;5033;46.310;11.214;2022-08-01T06:38:26;1.88;;;1.67;;
9986;SDS011;5033;46.310;11.214;2022-08-01T06:40:53;2.25;;;1.80;;
9986;SDS011;5033;46.310;11.214;2022-08-01T06:43:21;2.00;;;1.90;;
9986;SDS011;5033;46.310;11.214;2022-08-01T06:45:48;2.85;;;2.05;;
9986;SDS011;5033;46.310;11.214;2022-08-01T06:48:16;2.42;;;1.80;;
9986;SDS011;5033;46.310;11.214;2022-08-01T06:50:43;2.10;;;1.83;;
9986;SDS011;5033;46.310;11.214;2022-08-01T06:53:10;2.22;;;1.73;;
9986;SDS011;5033;46.310;11.214;2022-08-01T06:55:37;2.08;;;1.88;;
9986;SDS011;5033;46.310;11.214;2022-08-01T06:58:04;2.20;;;1.92;;
9986;SDS011;5033;46.310;11.214;2022-08-01T07:00:32;1.90;;;1.80;;
9986;SDS011;5033;46.310;11.214;2022-08-01T07:02:59;2.83;;;2.28;;
9986;SDS011;5033;46.310;11.214;2022-08-01T07:05:27;3.55;;;1.80;;
9986;SDS011;5033;46.310;11.214;2022-08-01T07:07:56;2.60;;;1.70;;
9986;SDS011;5033;46.310;11.214;2022-08-01T07:10:23;2.15;;;1.52;;
9986;SDS011;5033;46.310;11.214;2022-08-01T07:12:50;2.55;;;1.88;;
9986;SDS011;5033;46.310;11.214;2022-08-01T07:15:17;1.77;;;1.67;;
9986;SDS011;5033;46.310;11.214;2022-08-01T07:17:47;2.10;;;1.98;;
9986;SDS011;5033;46.310;11.214;2022-08-01T07:20:14;1.70;;;1.60;;
9986;SDS011;5033;46.310;11.214;2022-08-01T07:22:42;2.45;;;1.83;;
9986;SDS011;5033;46.310;11.214;2022-08-01T07:25:09;1.73;;;1.63;;
9986;SDS011;5033;46.310;11.214;2022-08-01T07:27:37;2.17;;;1.70;;
9986;SDS011;5033;46.310;11.214;2022-08-01T07:30:04;2.05;;;1.73;;
9986;SDS011;5033;46.310;11.214;2022-08-01T07:32:32;2.00;;;1.90;;
9986;SDS011;5033;46.310;11.214;2022-08-01T07:35:00;2.13;;;1.88;;
9986;SDS011;5033;46.310;11.214;2022-08-01T07:37:27;2.00;;;1.50;;
9986;SDS011;5033;46.310;11.214;2022-08-01T07:39:55;2.13;;;1.92;;
9986;SDS011;5033;46.310;11.214;2022-08-01T07:42:22;2.35;;;1.77;;
9986;SDS011;5033;46.310;11.214;2022-08-01T07:44:50;2.67;;;2.03;;
9986;SDS011;5033;46.310;11.214;2022-08-01T07:47:22;1.98;;;1.88;;
9986;SDS011;5033;46.310;11.214;2022-08-01T07:49:50;1.95;;;1.85;;
9986;SDS011;5033;46.310;11.214;2022-08-01T07:52:17;2.13;;;1.92;;
9986;SDS011;5033;46.310;11.214;2022-08-01T07:54:44;2.70;;;2.15;;
9986;SDS011;5033;46.310;11.214;2022-08-01T07:57:12;1.95;;;1.85;;
9986;SDS011;5033;46.310;11.214;2022-08-01T07:59:39;2.42;;;2.13;;
9986;SDS011;5033;46.310;11.214;2022-08-01T08:02:06;2.55;;;2.15;;
9986;SDS011;5033;46.310;11.214;2022-08-01T08:04:33;2.25;;;1.70;;
9986;SDS011;5033;46.310;11.214;2022-08-01T08:07:01;2.03;;;1.92;;
9986;SDS011;5033;46.310;11.214;2022-08-01T08:09:28;2.10;;;1.90;;
9986;SDS011;5033;46.310;11.214;2022-08-01T08:11:55;2.20;;;2.00;;
9986;SDS011;5033;46.310;11.214;2022-08-01T08:14:23;2.10;;;1.90;;
9986;SDS011;5033;46.310;11.214;2022-08-01T08:16:51;2.67;;;2.15;;
9986;SDS011;5033;46.310;11.214;2022-08-01T08:19:18;2.05;;;1.80;;
9986;SDS011;5033;46.310;11.214;2022-08-01T08:21:45;2.30;;;2.10;;
9986;SDS011;5033;46.310;11.214;2022-08-01T08:24:12;2.65;;;1.83;;
9986;SDS011;5033;46.310;11.214;2022-08-01T08:26:49;2.17;;;1.98;;
9986;SDS011;5033;46.310;11.214;2022-08-01T08:29:17;4.40;;;2.10;;
9986;SDS011;5033;46.310;11.214;2022-08-01T08:31:47;1.73;;;1.63;;
9986;SDS011;5033;46.310;11.214;2022-08-01T08:34:14;2.10;;;1.95;;
9986;SDS011;5033;46.310;11.214;2022-08-01T08:36:41;1.70;;;1.60;;
9986;SDS011;5033;46.310;11.214;2022-08-01T08:39:08;2.30;;;2.10;;
9986;SDS011;5033;46.310;11.214;2022-08-01T08:41:35;2.22;;;2.03;;
9986;SDS011;5033;46.310;11.214;2022-08-01T08:44:03;2.45;;;2.25;;
9986;SDS011;5033;46.310;11.214;2022-08-01T08:46:31;2.50;;;2.25;;
9986;SDS011;5033;46.310;11.214;2022-08-01T08:49:01;2.13;;;1.90;;
9986;SDS011;5033;46.310;11.214;2022-08-01T08:51:30;2.10;;;1.90;;
9986;SDS011;5033;46.310;11.214;2022-08-01T08:53:59;3.97;;;2.17;;
9986;SDS011;5033;46.310;11.214;2022-08-01T08:56:29;2.28;;;2.08;;
9986;SDS011;5033;46.310;11.214;2022-08-01T08:58:59;2.83;;;2.10;;
9986;SDS011;5033;46.310;11.214;2022-08-01T09:01:27;2.10;;;1.90;;
9986;SDS011;5033;46.310;11.214;2022-08-01T09:03:54;2.10;;;1.90;;
9986;SDS011;5033;46.310;11.214;2022-08-01T09:06:23;3.88;;;2.03;;
9986;SDS011;5033;46.310;11.214;2022-08-01T09:08:50;2.08;;;1.98;;
9986;SDS011;5033;46.310;11.214;2022-08-01T09:11:17;2.08;;;1.98;;
9986;SDS011;5033;46.310;11.214;2022-08-01T09:13:48;4.60;;;1.80;;
9986;SDS011;5033;46.310;11.214;2022-08-01T09:16:29;2.10;;;1.90;;
9986;SDS011;5033;46.310;11.214;2022-08-01T09:19:06;1.92;;;1.83;;
9986;SDS011;5033;46.310;11.214;2022-08-01T09:21:35;2.53;;;1.60;;
9986;SDS011;5033;46.310;11.214;2022-08-01T09:24:03;2.05;;;1.73;;
9986;SDS011;5033;46.310;11.214;2022-08-01T09:26:32;2.22;;;2.03;;
9986;SDS011;5033;46.310;11.214;2022-08-01T09:29:02;1.88;;;1.75;;
9986;SDS011;5033;46.310;11.214;2022-08-01T09:31:38;2.60;;;1.63;;
9986;SDS011;5033;46.310;11.214;2022-08-01T09:34:07;1.80;;;1.70;;
9986;SDS011;5033;46.310;11.214;2022-08-01T09:36:46;2.00;;;1.90;;
9986;SDS011;5033;46.310;11.214;2022-08-01T09:39:21;1.85;;;1.73;;
9986;SDS011;5033;46.310;11.214;2022-08-01T09:41:50;2.10;;;1.88;;
9986;SDS011;5033;46.310;11.214;2022-08-01T09:44:17;2.25;;;1.95;;
9986;SDS011;5033;46.310;11.214;2022-08-01T09:46:52;1.90;;;1.80;;
9986;SDS011;5033;46.310;11.214;2022-08-01T09:49:29;2.00;;;1.90;;
9986;SDS011;5033;46.310;11.214;2022-08-01T09:52:09;2.58;;;2.00;;
9986;SDS011;5033;46.310;11.214;2022-08-01T09:54:38;2.25;;;1.60;;
9986;SDS011;5033;46.310;11.214;2022-08-01T09:57:09;1.75;;;1.65;;
9986;SDS011;5033;46.310;11.214;2022-08-01T09:59:39;3.58;;;2.05;;
9986;SDS011;5033;46.310;11.214;2022-08-01T10:02:09;1.95;;;1.83;;
9986;SDS011;5033;46.310;11.214;2022-08-01T10:04:45;1.77;;;1.67;;
9986;SDS011;5033;46.310;11.214;2022-08-01T10:07:15;2.28;;;2.03;;
9986;SDS011;5033;46.310;11.214;2022-08-01T10:09:42;1.80;;;1.70;;
9986;SDS011;5033;46.310;11.214;2022-08-01T10:12:10;2.00;;;1.90;;
9986;SDS011;5033;46.310;11.214;2022-08-01T10:14:39;2.00;;;1.90;;
9986;SDS011;5033;46.310;11.214;2022-08-01T10:17:07;1.73;;;1.63;;
9986;SDS011;5033;46.310;11.214;2022-08-01T10:19:37;1.95;;;1.85;;
9986;SDS011;5033;46.310;11.214;2022-08-01T10:22:08;1.80;;;1.70;;
9986;SDS011;5033;46.310;11.214;2022-08-01T10:24:38;2.10;;;1.63;;
9986;SDS011;5033;46.310;11.214;2022-08-01T10:27:06;2.58;;;1.73;;
9986;SDS011;5033;46.310;11.214;2022-08-01T10:29:36;1.85;;;1.75;;
9986;SDS011;5033;46.310;11.214;2022-08-01T10:32:06;1.90;;;1.80;;
9986;SDS011;5033;46.310;11.214;2022-08-01T10:34:34;1.83;;;1.73;;
9986;SDS011;5033;46.310;11.214;2022-08-01T10:37:02;3.05;;;1.90;;
9986;SDS011;5033;46.310;11.214;2022-08-01T10:39:30;1.67;;;1.58;;
9986;SDS011;5033;46.310;11.214;2022-08-01T10:41:59;1.70;;;1.60;;
9986;SDS011;5033;46.310;11.214;2022-08-01T10:44:27;1.55;;;1.45;;
9986;SDS011;5033;46.310;11.214;2022-08-01T10:46:57;1.55;;;1.45;;
9986;SDS011;5033;46.310;11.214;2022-08-01T10:49:29;1.48;;;1.33;;
9986;SDS011;5033;46.310;11.214;2022-08-01T10:52:00;2.28;;;1.70;;
9986;SDS011;5033;46.310;11.214;2022-08-01T10:54:28;1.65;;;1.50;;
9986;SDS011;5033;46.310;11.214;2022-08-01T10:56:55;3.70;;;1.90;;
9986;SDS011;5033;46.310;11.214;2022-08-01T10:59:28;1.50;;;1.40;;
9986;SDS011;5033;46.310;11.214;2022-08-01T11:01:57;2.97;;;1.30;;
9986;SDS011;5033;46.310;11.214;2022-08-01T11:04:32;1.67;;;1.58;;
9986;SDS011;5033;46.310;11.214;2022-08-01T11:07:04;1.50;;;1.40;;
9986;SDS011;5033;46.310;11.214;2022-08-01T11:09:38;2.58;;;1.60;;
9986;SDS011;5033;46.310;11.214;2022-08-01T11:12:09;1.58;;;1.48;;
9986;SDS011;5033;46.310;11.214;2022-08-01T11:17:49;1.20;;;1.10;;
9986;SDS011;5033;46.310;11.214;2022-08-01T11:20:17;1.40;;;1.30;;
9986;SDS011;5033;46.310;11.214;2022-08-01T11:28:42;1.15;;;1.10;;
9986;SDS011;5033;46.310;11.214;2022-08-01T11:31:27;1.35;;;1.20;;
9986;SDS011;5033;46.310;11.214;2022-08-01T11:33:55;1.27;;;1.17;;
9986;SDS011;5033;46.310;11.214;2022-08-01T11:36:22;1.60;;;1.30;;
9986;SDS011;5033;46.310;11.214;2022-08-01T11:39:09;1.58;;;1.48;;
9986;SDS011;5033;46.310;11.214;2022-08-01T11:41:38;1.35;;;1.25;;
9986;SDS011;5033;46.310;11.214;2022-08-01T11:44:07;1.63;;;1.10;;
9986;SDS011;5033;46.310;11.214;2022-08-01T11:46:49;1.10;;;1.10;;
9986;SDS011;5033;46.310;11.214;2022-08-01T11:49:32;1.40;;;1.30;;
9986;SDS011;5033;46.310;11.214;2022-08-01T11:52:11;1.13;;;1.13;;
9986;SDS011;5033;46.310;11.214;2022-08-01T11:54:40;2.20;;;1.35;;
9986;SDS011;5033;46.310;11.214;2022-08-01T11:57:09;1.27;;;1.17;;
9986;SDS011;5033;46.310;11.214;2022-08-01T11:59:40;1.25;;;1.23;;
9986;SDS011;5033;46.310;11.214;2022-08-01T12:02:15;1.58;;;1.10;;
9986;SDS011;5033;46.310;11.214;2022-08-01T12:04:47;1.13;;;1.00;;
9986;SDS011;5033;46.310;11.214;2022-08-01T12:07:16;1.38;;;1.10;;
9986;SDS011;5033;46.310;11.214;2022-08-01T12:09:44;1.17;;;1.10;;
9986;SDS011;5033;46.310;11.214;2022-08-01T12:12:11;1.05;;;1.00;;
9986;SDS011;5033;46.310;11.214;2022-08-01T12:14:44;1.30;;;1.20;;
9986;SDS011;5033;46.310;11.214;2022-08-01T12:17:19;1.15;;;1.10;;
9986;SDS011;5033;46.310;11.214;2022-08-01T12:19:53;1.15;;;1.05;;
9986;SDS011;5033;46.310;11.214;2022-08-01T12:22:21;1.15;;;0.90;;
9986;SDS011;5033;46.310;11.214;2022-08-01T12:24:49;2.15;;;1.10;;
9986;SDS011;5033;46.310;11.214;2022-08-01T12:27:23;1.10;;;1.00;;
9986;SDS011;5033;46.310;11.214;2022-08-01T12:29:52;1.70;;;1.10;;
9986;SDS011;5033;46.310;11.214;2022-08-01T12:32:23;1.48;;;0.80;;
9986;SDS011;5033;46.310;11.214;2022-08-01T12:34:53;0.90;;;0.90;;
9986;SDS011;5033;46.310;11.214;2022-08-01T12:37:21;0.82;;;0.80;;
9986;SDS011;5033;46.310;11.214;2022-08-01T12:39:49;0.80;;;0.80;;
9986;SDS011;5033;46.310;11.214;2022-08-01T12:42:16;0.60;;;0.60;;
9986;SDS011;5033;46.310;11.214;2022-08-01T12:44:45;2.72;;;0.82;;
9986;SDS011;5033;46.310;11.214;2022-08-01T12:47:17;0.90;;;0.75;;
9986;SDS011;5033;46.310;11.214;2022-08-01T12:49:45;1.40;;;0.82;;
9986;SDS011;5033;46.310;11.214;2022-08-01T12:52:14;1.35;;;0.98;;
9986;SDS011;5033;46.310;11.214;2022-08-01T12:55:01;2.05;;;0.95;;
9986;SDS011;5033;46.310;11.214;2022-08-01T12:57:33;0.60;;;0.60;;
9986;SDS011;5033;46.310;11.214;2022-08-01T13:00:08;0.90;;;0.80;;
9986;SDS011;5033;46.310;11.214;2022-08-01T13:02:41;0.98;;;0.90;;
9986;SDS011;5033;46.310;11.214;2022-08-01T13:05:08;2.25;;;0.90;;
9986;SDS011;5033;46.310;11.214;2022-08-01T13:07:40;0.73;;;0.70;;
9986;SDS011;5033;46.310;11.214;2022-08-01T13:10:12;0.80;;;0.80;;
9986;SDS011;5033;46.310;11.214;2022-08-01T13:12:41;1.02;;;0.77;;
9986;SDS011;5033;46.310;11.214;2022-08-01T13:15:21;1.10;;;1.00;;
9986;SDS011;5033;46.310;11.214;2022-08-01T13:17:54;0.75;;;0.75;;
9986;SDS011;5033;46.310;11.214;2022-08-01T13:20:25;0.95;;;0.85;;
9986;SDS011;5033;46.310;11.214;2022-08-01T13:22:54;0.73;;;0.73;;
9986;SDS011;5033;46.310;11.214;2022-08-01T13:25:21;0.60;;;0.60;;
9986;SDS011;5033;46.310;11.214;2022-08-01T13:27:48;0.80;;;0.80;;
9986;SDS011;5033;46.310;11.214;2022-08-01T13:30:36;2.22;;;0.88;;
9986;SDS011;5033;46.310;11.214;2022-08-01T13:33:04;1.20;;;0.98;;
9986;SDS011;5033;46.310;11.214;2022-08-01T13:35:31;1.17;;;0.80;;
9986;SDS011;5033;46.310;11.214;2022-08-01T13:37:58;1.00;;;0.93;;
9986;SDS011;5033;46.310;11.214;2022-08-01T13:40:26;1.15;;;0.80;;
9986;SDS011;5033;46.310;11.214;2022-08-01T13:42:53;1.90;;;0.80;;
9986;SDS011;5033;46.310;11.214;2022-08-01T13:45:21;1.13;;;0.98;;
9986;SDS011;5033;46.310;11.214;2022-08-01T13:47:49;1.15;;;0.95;;
9986;SDS011;5033;46.310;11.214;2022-08-01T13:50:17;1.30;;;0.77;;
9986;SDS011;5033;46.310;11.214;2022-08-01T13:52:46;0.98;;;0.95;;
9986;SDS011;5033;46.310;11.214;2022-08-01T13:55:13;1.48;;;0.80;;
9986;SDS011;5033;46.310;11.214;2022-08-01T13:57:40;0.90;;;0.90;;
9986;SDS011;5033;46.310;11.214;2022-08-01T14:00:08;1.67;;;1.00;;
9986;SDS011;5033;46.310;11.214;2022-08-01T14:02:35;0.95;;;0.95;;
9986;SDS011;5033;46.310;11.214;2022-08-01T14:05:02;1.10;;;0.90;;
9986;SDS011;5033;46.310;11.214;2022-08-01T14:07:32;0.70;;;0.70;;
9986;SDS011;5033;46.310;11.214;2022-08-01T14:09:59;0.77;;;0.77;;
9986;SDS011;5033;46.310;11.214;2022-08-01T14:12:26;0.70;;;0.70;;
9986;SDS011;5033;46.310;11.214;2022-08-01T14:14:53;1.58;;;0.85;;
9986;SDS011;5033;46.310;11.214;2022-08-01T14:17:21;0.85;;;0.82;;
9986;SDS011;5033;46.310;11.214;2022-08-01T14:19:48;1.95;;;0.70;;
9986;SDS011;5033;46.310;11.214;2022-08-01T14:22:15;1.45;;;0.70;;
9986;SDS011;5033;46.310;11.214;2022-08-01T14:24:44;0.90;;;0.90;;
9986;SDS011;5033;46.310;11.214;2022-08-01T14:27:11;0.77;;;0.60;;
9986;SDS011;5033;46.310;11.214;2022-08-01T14:29:38;0.80;;;0.80;;
9986;SDS011;5033;46.310;11.214;2022-08-01T14:32:05;0.85;;;0.85;;
9986;SDS011;5033;46.310;11.214;2022-08-01T14:34:32;2.08;;;0.88;;
9986;SDS011;5033;46.310;11.214;2022-08-01T14:36:59;1.02;;;0.93;;
9986;SDS011;5033;46.310;11.214;2022-08-01T14:39:26;2.05;;;0.80;;
9986;SDS011;5033;46.310;11.214;2022-08-01T14:41:55;0.80;;;0.70;;
9986;SDS011;5033;46.310;11.214;2022-08-01T14:44:22;1.38;;;1.15;;
9986;SDS011;5033;46.310;11.214;2022-08-01T14:46:49;1.90;;;0.80;;
9986;SDS011;5033;46.310;11.214;2022-08-01T14:49:16;1.10;;;1.00;;
9986;SDS011;5033;46.310;11.214;2022-08-01T14:51:43;1.30;;;0.90;;
9986;SDS011;5033;46.310;11.214;2022-08-01T14:54:10;0.98;;;0.90;;
9986;SDS011;5033;46.310;11.214;2022-08-01T14:56:37;1.20;;;1.05;;
9986;SDS011;5033;46.310;11.214;2022-08-01T14:59:06;2.05;;;1.02;;
9986;SDS011;5033;46.310;11.214;2022-08-01T15:01:33;1.98;;;1.00;;
9986;SDS011;5033;46.310;11.214;2022-08-01T15:04:00;1.13;;;1.00;;
9986;SDS011;5033;46.310;11.214;2022-08-01T15:06:27;1.08;;;1.00;;
9986;SDS011;5033;46.310;11.214;2022-08-01T15:08:54;1.90;;;0.90;;
9986;SDS011;5033;46.310;11.214;2022-08-01T15:11:21;1.45;;;1.35;;
9986;SDS011;5033;46.310;11.214;2022-08-01T15:13:48;1.88;;;0.90;;
9986;SDS011;5033;46.310;11.214;2022-08-01T15:16:37;3.90;;;1.50;;
9986;SDS011;5033;46.310;11.214;2022-08-01T15:19:05;1.85;;;1.20;;
9986;SDS011;5033;46.310;11.214;2022-08-01T15:21:32;1.27;;;1.00;;